sensor_id;sensor_type;location;lat;lon;timestamp;pressure;altitude;pressure_sealevel;temperature;humidity
71384;BME280;67558;52.166;5.004;2023-07-31T00:02:09;100985.84;;;20.93;63.69
71384;BME280;67558;52.166;5.004;2023-07-31T00:04:35;100991.63;;;20.91;64.24
71384;BME280;67558;52.166;5.004;2023-07-31T00:07:01;100986.19;;;20.91;64.11
71384;BME280;67558;52.166;5.004;2023-07-31T00:09:29;100984.41;;;20.95;64.36
71384;BME280;67558;52.166;5.004;2023-07-31T00:11:55;100985.13;;;21.04;63.93
71384;BME280;67558;52.166;5.004;2023-07-31T00:14:21;100978.69;;;21.09;64.06
71384;BME280;67558;52.166;5.004;2023-07-31T00:16:47;100968.72;;;21.13;63.71
71384;BME280;67558;52.166;5.004;2023-07-31T00:19:13;100972.84;;;21.19;63.96
71384;BME280;67558;52.166;5.004;2023-07-31T00:21:39;100966.63;;;21.19;63.96
71384;BME280;67558;52.166;5.004;2023-07-31T00:24:05;100976.97;;;21.25;64.21
71384;BME280;67558;52.166;5.004;2023-07-31T00:26:31;100962.63;;;21.16;64.56
71384;BME280;67558;52.166;5.004;2023-07-31T00:28:57;100966.06;;;21.25;64.35
71384;BME280;67558;52.166;5.004;2023-07-31T00:31:23;100950.41;;;21.22;64.12
71384;BME280;67558;52.166;5.004;2023-07-31T00:33:49;100962.22;;;21.26;64.14
71384;BME280;67558;52.166;5.004;2023-07-31T00:36:15;100966.88;;;21.26;64.35
71384;BME280;67558;52.166;5.004;2023-07-31T00:38:41;100963.81;;;21.27;64.56
71384;BME280;67558;52.166;5.004;2023-07-31T00:41:07;100962.47;;;21.34;64.55
71384;BME280;67558;52.166;5.004;2023-07-31T00:43:33;100969.25;;;21.27;65.07
71384;BME280;67558;52.166;5.004;2023-07-31T00:45:59;100962.69;;;21.28;64.76
71384;BME280;67558;52.166;5.004;2023-07-31T00:48:26;100969.25;;;21.27;65.26
71384;BME280;67558;52.166;5.004;2023-07-31T00:50:52;100975.56;;;21.19;65.46
71384;BME280;67558;52.166;5.004;2023-07-31T00:53:18;100987.69;;;21.22;65.64
71384;BME280;67558;52.166;5.004;2023-07-31T00:55:44;100979.28;;;21.15;65.57
71384;BME280;67558;52.166;5.004;2023-07-31T00:58:10;100978.94;;;21.16;65.09
71384;BME280;67558;52.166;5.004;2023-07-31T01:00:36;100980.94;;;21.28;64.99
71384;BME280;67558;52.166;5.004;2023-07-31T01:03:02;100969.91;;;21.24;64.76
71384;BME280;67558;52.166;5.004;2023-07-31T01:10:55;100976.75;;;21.31;64.58
71384;BME280;67558;52.166;5.004;2023-07-31T01:13:23;100956.31;;;21.24;64.75
71384;BME280;67558;52.166;5.004;2023-07-31T01:15:48;100963.69;;;21.24;65.07
71384;BME280;67558;52.166;5.004;2023-07-31T01:18:15;100949.75;;;21.25;65.04
71384;BME280;67558;52.166;5.004;2023-07-31T01:20:42;100954.84;;;21.27;64.99
71384;BME280;67558;52.166;5.004;2023-07-31T01:24:01;100960.75;;;21.29;65.29
71384;BME280;67558;52.166;5.004;2023-07-31T01:26:34;100959.31;;;21.32;64.94
71384;BME280;67558;52.166;5.004;2023-07-31T01:29:07;100936.56;;;21.15;65.11
71384;BME280;67558;52.166;5.004;2023-07-31T01:31:39;100960.56;;;21.34;64.76
71384;BME280;67558;52.166;5.004;2023-07-31T01:34:08;100950.00;;;21.33;65.29
71384;BME280;67558;52.166;5.004;2023-07-31T01:36:35;100950.00;;;21.33;65.02
71384;BME280;67558;52.166;5.004;2023-07-31T01:39:02;100949.22;;;21.32;65.17
71384;BME280;67558;52.166;5.004;2023-07-31T01:41:27;100944.78;;;21.27;65.00
71384;BME280;67558;52.166;5.004;2023-07-31T01:43:53;100956.13;;;21.30;65.10
71384;BME280;67558;52.166;5.004;2023-07-31T01:46:19;100932.03;;;21.19;65.16
71384;BME280;67558;52.166;5.004;2023-07-31T01:48:45;100946.81;;;21.31;64.86
71384;BME280;67558;52.166;5.004;2023-07-31T01:51:11;100943.63;;;21.28;64.92
71384;BME280;67558;52.166;5.004;2023-07-31T01:53:37;100949.22;;;21.32;65.09
71384;BME280;67558;52.166;5.004;2023-07-31T01:56:03;100935.47;;;21.28;64.76
71384;BME280;67558;52.166;5.004;2023-07-31T01:58:29;100928.00;;;21.25;65.03
71384;BME280;67558;52.166;5.004;2023-07-31T02:00:54;100923.66;;;21.24;64.79
71384;BME280;67558;52.166;5.004;2023-07-31T02:03:20;100915.84;;;21.23;65.01
71384;BME280;67558;52.166;5.004;2023-07-31T02:05:47;100918.63;;;21.14;65.26
71384;BME280;67558;52.166;5.004;2023-07-31T02:08:13;100904.41;;;20.96;65.67
71384;BME280;67558;52.166;5.004;2023-07-31T02:10:39;100898.44;;;21.03;65.54
71384;BME280;67558;52.166;5.004;2023-07-31T02:13:05;100898.69;;;21.10;65.35
71384;BME280;67558;52.166;5.004;2023-07-31T02:15:31;100880.09;;;21.12;65.20
71384;BME280;67558;52.166;5.004;2023-07-31T02:17:57;100893.81;;;21.16;65.14
71384;BME280;67558;52.166;5.004;2023-07-31T02:20:23;100879.84;;;21.05;65.16
71384;BME280;67558;52.166;5.004;2023-07-31T02:22:49;100883.16;;;21.11;64.88
71384;BME280;67558;52.166;5.004;2023-07-31T02:25:15;100888.25;;;21.12;64.91
71384;BME280;67558;52.166;5.004;2023-07-31T02:27:41;100896.00;;;21.22;64.99
71384;BME280;67558;52.166;5.004;2023-07-31T02:30:07;100894.75;;;21.20;65.15
71384;BME280;67558;52.166;5.004;2023-07-31T02:32:33;100895.44;;;21.17;65.24
71384;BME280;67558;52.166;5.004;2023-07-31T02:35:00;100901.66;;;21.17;65.30
71384;BME280;67558;52.166;5.004;2023-07-31T02:37:26;100905.50;;;21.16;64.86
71384;BME280;67558;52.166;5.004;2023-07-31T02:39:55;100898.63;;;21.19;64.83
71384;BME280;67558;52.166;5.004;2023-07-31T02:42:20;100877.28;;;21.09;64.75
71384;BME280;67558;52.166;5.004;2023-07-31T02:44:46;100887.28;;;21.17;64.82
71384;BME280;67558;52.166;5.004;2023-07-31T02:47:12;100882.88;;;21.24;64.68
71384;BME280;67558;52.166;5.004;2023-07-31T02:49:38;100878.28;;;21.16;64.86
71384;BME280;67558;52.166;5.004;2023-07-31T02:52:04;100869.03;;;21.17;64.81
71384;BME280;67558;52.166;5.004;2023-07-31T02:54:31;100864.78;;;21.07;65.34
71384;BME280;67558;52.166;5.004;2023-07-31T02:56:57;100876.97;;;21.22;65.01
71384;BME280;67558;52.166;5.004;2023-07-31T02:59:23;100856.06;;;21.14;65.01
71384;BME280;67558;52.166;5.004;2023-07-31T03:01:50;100876.63;;;21.24;64.95
71384;BME280;67558;52.166;5.004;2023-07-31T03:04:16;100870.97;;;21.17;64.50
71384;BME280;67558;52.166;5.004;2023-07-31T03:06:41;100851.31;;;21.11;64.73
71384;BME280;67558;52.166;5.004;2023-07-31T03:09:07;100873.78;;;21.20;64.39
71384;BME280;67558;52.166;5.004;2023-07-31T03:11:33;100876.50;;;21.20;64.88
71384;BME280;67558;52.166;5.004;2023-07-31T03:13:59;100874.78;;;21.16;64.65
71384;BME280;67558;52.166;5.004;2023-07-31T03:16:25;100872.22;;;21.19;65.09
71384;BME280;67558;52.166;5.004;2023-07-31T03:18:51;100868.34;;;21.20;64.58
71384;BME280;67558;52.166;5.004;2023-07-31T03:21:17;100878.75;;;21.18;64.26
71384;BME280;67558;52.166;5.004;2023-07-31T03:23:43;100872.66;;;21.21;64.65
71384;BME280;67558;52.166;5.004;2023-07-31T03:26:09;100863.91;;;21.16;64.40
71384;BME280;67558;52.166;5.004;2023-07-31T03:28:34;100869.94;;;21.21;64.28
71384;BME280;67558;52.166;5.004;2023-07-31T03:31:00;100874.59;;;21.21;64.40
71384;BME280;67558;52.166;5.004;2023-07-31T03:33:26;100862.66;;;21.13;64.58
71384;BME280;67558;52.166;5.004;2023-07-31T03:35:52;100816.22;;;20.85;64.16
71384;BME280;67558;52.166;5.004;2023-07-31T03:38:18;100855.28;;;21.14;64.59
71384;BME280;67558;52.166;5.004;2023-07-31T03:40:44;100848.81;;;21.06;64.55
71384;BME280;67558;52.166;5.004;2023-07-31T03:43:11;100867.56;;;21.20;64.34
71384;BME280;67558;52.166;5.004;2023-07-31T03:45:37;100852.47;;;21.10;64.36
71384;BME280;67558;52.166;5.004;2023-07-31T03:48:04;100855.88;;;21.19;64.45
71384;BME280;67558;52.166;5.004;2023-07-31T03:50:29;100848.28;;;21.13;64.30
71384;BME280;67558;52.166;5.004;2023-07-31T03:52:55;100833.63;;;21.05;64.24
71384;BME280;67558;52.166;5.004;2023-07-31T03:55:21;100854.63;;;21.17;64.55
71384;BME280;67558;52.166;5.004;2023-07-31T03:57:47;100847.03;;;21.10;64.23
71384;BME280;67558;52.166;5.004;2023-07-31T04:00:14;100843.13;;;20.99;65.08
71384;BME280;67558;52.166;5.004;2023-07-31T04:02:39;100848.09;;;20.97;65.27
71384;BME280;67558;52.166;5.004;2023-07-31T04:05:06;100831.69;;;21.05;64.55
71384;BME280;67558;52.166;5.004;2023-07-31T04:07:31;100821.38;;;20.99;64.62
71384;BME280;67558;52.166;5.004;2023-07-31T04:09:57;100827.84;;;21.06;63.92
71384;BME280;67558;52.166;5.004;2023-07-31T04:12:23;100816.16;;;20.94;64.61
71384;BME280;67558;52.166;5.004;2023-07-31T04:14:49;100817.94;;;20.90;65.02
71384;BME280;67558;52.166;5.004;2023-07-31T04:17:15;100814.81;;;21.00;64.39
71384;BME280;67558;52.166;5.004;2023-07-31T04:19:41;100808.66;;;20.91;64.82
71384;BME280;67558;52.166;5.004;2023-07-31T04:22:07;100801.50;;;20.86;64.72
71384;BME280;67558;52.166;5.004;2023-07-31T04:24:33;100804.91;;;20.83;64.89
71384;BME280;67558;52.166;5.004;2023-07-31T04:26:59;100801.59;;;20.77;64.86
71384;BME280;67558;52.166;5.004;2023-07-31T04:29:24;100816.41;;;20.80;65.13
71384;BME280;67558;52.166;5.004;2023-07-31T04:31:50;100825.41;;;20.80;64.96
71384;BME280;67558;52.166;5.004;2023-07-31T04:34:16;100808.81;;;20.73;64.84
71384;BME280;67558;52.166;5.004;2023-07-31T04:36:42;100818.44;;;20.71;65.28
71384;BME280;67558;52.166;5.004;2023-07-31T04:39:08;100819.22;;;20.71;65.27
71384;BME280;67558;52.166;5.004;2023-07-31T04:41:34;100816.97;;;20.73;65.26
71384;BME280;67558;52.166;5.004;2023-07-31T04:44:01;100818.44;;;20.71;65.45
71384;BME280;67558;52.166;5.004;2023-07-31T04:46:27;100809.03;;;20.68;65.29
71384;BME280;67558;52.166;5.004;2023-07-31T04:48:53;100795.31;;;20.64;65.44
71384;BME280;67558;52.166;5.004;2023-07-31T04:51:19;100791.00;;;20.63;65.45
71384;BME280;67558;52.166;5.004;2023-07-31T04:53:46;100777.59;;;20.58;65.56
71384;BME280;67558;52.166;5.004;2023-07-31T04:56:12;100793.84;;;20.67;65.85
71384;BME280;67558;52.166;5.004;2023-07-31T04:58:38;100783.19;;;20.62;65.39
71384;BME280;67558;52.166;5.004;2023-07-31T05:01:04;100785.69;;;20.67;65.52
71384;BME280;67558;52.166;5.004;2023-07-31T05:03:30;100783.97;;;20.62;65.80
71384;BME280;67558;52.166;5.004;2023-07-31T05:05:55;100791.34;;;20.62;65.48
71384;BME280;67558;52.166;5.004;2023-07-31T05:08:21;100796.44;;;20.63;65.53
71384;BME280;67558;52.166;5.004;2023-07-31T05:10:47;100779.03;;;20.56;65.53
71384;BME280;67558;52.166;5.004;2023-07-31T05:13:14;100787.69;;;20.58;65.92
71384;BME280;67558;52.166;5.004;2023-07-31T05:15:41;100785.75;;;20.58;65.97
71384;BME280;67558;52.166;5.004;2023-07-31T05:18:06;100778.25;;;20.55;66.01
71384;BME280;67558;52.166;5.004;2023-07-31T05:20:32;100787.09;;;20.52;65.85
71384;BME280;67558;52.166;5.004;2023-07-31T05:22:58;100748.91;;;20.49;65.49
71384;BME280;67558;52.166;5.004;2023-07-31T05:25:24;100772.03;;;20.55;65.74
71384;BME280;67558;52.166;5.004;2023-07-31T05:27:49;100770.38;;;20.62;65.46
71384;BME280;67558;52.166;5.004;2023-07-31T05:30:16;100769.84;;;20.69;65.06
71384;BME280;67558;52.166;5.004;2023-07-31T05:32:42;100752.63;;;20.65;65.25
71384;BME280;67558;52.166;5.004;2023-07-31T05:35:08;100751.41;;;20.54;65.84
71384;BME280;67558;52.166;5.004;2023-07-31T05:37:34;100750.50;;;20.50;65.99
71384;BME280;67558;52.166;5.004;2023-07-31T05:40:00;100740.50;;;20.41;65.90
71384;BME280;67558;52.166;5.004;2023-07-31T05:42:25;100753.47;;;20.57;66.04
71384;BME280;67558;52.166;5.004;2023-07-31T05:44:51;100745.28;;;20.65;65.52
71384;BME280;67558;52.166;5.004;2023-07-31T05:47:16;100738.38;;;20.68;65.37
71384;BME280;67558;52.166;5.004;2023-07-31T05:49:42;100736.44;;;20.69;65.40
71384;BME280;67558;52.166;5.004;2023-07-31T05:52:07;100741.22;;;20.72;65.57
71384;BME280;67558;52.166;5.004;2023-07-31T05:54:33;100731.69;;;20.65;65.26
71384;BME280;67558;52.166;5.004;2023-07-31T05:56:58;100725.47;;;20.65;65.54
71384;BME280;67558;52.166;5.004;2023-07-31T05:59:24;100724.31;;;20.66;65.52
71384;BME280;67558;52.166;5.004;2023-07-31T06:01:50;100731.78;;;20.69;65.23
71384;BME280;67558;52.166;5.004;2023-07-31T06:04:18;100718.56;;;20.68;65.40
71384;BME280;67558;52.166;5.004;2023-07-31T06:06:43;100729.88;;;20.70;65.48
71384;BME280;67558;52.166;5.004;2023-07-31T06:09:09;100716.63;;;20.68;65.46
71384;BME280;67558;52.166;5.004;2023-07-31T06:11:34;100713.91;;;20.68;65.49
71384;BME280;67558;52.166;5.004;2023-07-31T06:13:59;100713.44;;;20.66;65.58
71384;BME280;67558;52.166;5.004;2023-07-31T06:16:25;100714.22;;;20.66;65.51
71384;BME280;67558;52.166;5.004;2023-07-31T06:18:50;100705.28;;;20.66;66.13
71384;BME280;67558;52.166;5.004;2023-07-31T06:21:16;100719.13;;;20.73;66.06
71384;BME280;67558;52.166;5.004;2023-07-31T06:23:42;100711.66;;;20.70;66.00
71384;BME280;67558;52.166;5.004;2023-07-31T06:26:08;100716.41;;;20.73;65.76
71384;BME280;67558;52.166;5.004;2023-07-31T06:28:33;100713.47;;;20.78;66.08
71384;BME280;67558;52.166;5.004;2023-07-31T06:30:58;100698.66;;;20.76;65.86
71384;BME280;67558;52.166;5.004;2023-07-31T06:33:24;100694.19;;;20.71;66.01
71384;BME280;67558;52.166;5.004;2023-07-31T06:35:50;100703.84;;;20.81;66.00
71384;BME280;67558;52.166;5.004;2023-07-31T06:38:15;100697.19;;;20.78;66.01
71384;BME280;67558;52.166;5.004;2023-07-31T06:40:40;100698.09;;;20.82;66.02
71384;BME280;67558;52.166;5.004;2023-07-31T06:43:06;100672.00;;;20.69;65.80
71384;BME280;67558;52.166;5.004;2023-07-31T06:45:36;100693.13;;;20.84;66.33
71384;BME280;67558;52.166;5.004;2023-07-31T06:48:02;100687.31;;;20.86;66.10
71384;BME280;67558;52.166;5.004;2023-07-31T06:50:29;100671.47;;;20.76;66.35
71384;BME280;67558;52.166;5.004;2023-07-31T06:52:54;100684.16;;;20.84;66.16
71384;BME280;67558;52.166;5.004;2023-07-31T06:55:20;100672.72;;;20.91;66.21
71384;BME280;67558;52.166;5.004;2023-07-31T06:57:48;100664.44;;;20.87;66.23
71384;BME280;67558;52.166;5.004;2023-07-31T07:00:14;100661.84;;;20.91;66.57
71384;BME280;67558;52.166;5.004;2023-07-31T07:02:40;100669.66;;;20.92;66.46
71384;BME280;67558;52.166;5.004;2023-07-31T07:05:06;100673.41;;;21.00;66.60
71384;BME280;67558;52.166;5.004;2023-07-31T07:07:32;100676.13;;;21.00;66.52
71384;BME280;67558;52.166;5.004;2023-07-31T07:09:57;100667.06;;;20.96;66.51
71384;BME280;67558;52.166;5.004;2023-07-31T07:12:25;100672.97;;;20.98;66.33
71384;BME280;67558;52.166;5.004;2023-07-31T07:14:50;100671.94;;;21.02;66.45
71384;BME280;67558;52.166;5.004;2023-07-31T07:17:18;100683.63;;;21.15;65.90
71384;BME280;67558;52.166;5.004;2023-07-31T07:19:43;100677.47;;;21.18;65.83
71384;BME280;67558;52.166;5.004;2023-07-31T07:22:09;100668.09;;;21.16;65.79
71384;BME280;67558;52.166;5.004;2023-07-31T07:24:35;100684.28;;;21.24;65.99
71384;BME280;67558;52.166;5.004;2023-07-31T07:27:00;100660.72;;;21.04;66.11
71384;BME280;67558;52.166;5.004;2023-07-31T07:29:26;100662.53;;;21.00;66.35
71384;BME280;67558;52.166;5.004;2023-07-31T07:31:51;100663.78;;;21.02;66.55
71384;BME280;67558;52.166;5.004;2023-07-31T07:34:17;100684.06;;;21.05;66.87
71384;BME280;67558;52.166;5.004;2023-07-31T07:36:42;100674.66;;;21.02;66.59
71384;BME280;67558;52.166;5.004;2023-07-31T07:39:09;100670.91;;;21.07;66.88
71384;BME280;67558;52.166;5.004;2023-07-31T07:41:35;100665.03;;;21.05;66.88
71384;BME280;67558;52.166;5.004;2023-07-31T07:44:00;100658.34;;;21.02;66.68
71384;BME280;67558;52.166;5.004;2023-07-31T07:46:25;100666.38;;;21.11;66.74
71384;BME280;67558;52.166;5.004;2023-07-31T07:48:51;100670.94;;;21.19;66.83
71384;BME280;67558;52.166;5.004;2023-07-31T07:51:16;100674.44;;;21.20;66.83
71384;BME280;67558;52.166;5.004;2023-07-31T07:53:41;100653.13;;;21.10;66.99
71384;BME280;67558;52.166;5.004;2023-07-31T07:56:07;100673.75;;;21.23;67.03
71384;BME280;67558;52.166;5.004;2023-07-31T07:58:32;100658.34;;;21.15;66.96
71384;BME280;67558;52.166;5.004;2023-07-31T08:00:57;100667.88;;;21.21;67.32
71384;BME280;67558;52.166;5.004;2023-07-31T08:03:23;100665.16;;;21.21;66.99
71384;BME280;67558;52.166;5.004;2023-07-31T08:05:48;100663.78;;;21.27;67.33
71384;BME280;67558;52.166;5.004;2023-07-31T08:08:15;100668.88;;;21.28;67.14
71384;BME280;67558;52.166;5.004;2023-07-31T08:10:41;100645.88;;;21.26;67.13
71384;BME280;67558;52.166;5.004;2023-07-31T08:13:07;100638.94;;;21.28;67.01
71384;BME280;67558;52.166;5.004;2023-07-31T08:15:32;100647.56;;;21.31;67.34
71384;BME280;67558;52.166;5.004;2023-07-31T08:17:57;100639.84;;;21.33;67.20
71384;BME280;67558;52.166;5.004;2023-07-31T08:20:23;100652.56;;;21.41;67.67
71384;BME280;67558;52.166;5.004;2023-07-31T08:22:48;100643.59;;;21.40;67.40
71384;BME280;67558;52.166;5.004;2023-07-31T08:25:14;100639.97;;;21.48;67.68
71384;BME280;67558;52.166;5.004;2023-07-31T08:27:43;100626.28;;;21.45;67.84
71384;BME280;67558;52.166;5.004;2023-07-31T08:30:08;100643.69;;;21.56;67.62
71384;BME280;67558;52.166;5.004;2023-07-31T08:32:34;100648.44;;;21.59;67.31
71384;BME280;67558;52.166;5.004;2023-07-31T08:34:59;100635.53;;;21.56;67.51
71384;BME280;67558;52.166;5.004;2023-07-31T08:37:25;100643.44;;;21.61;67.49
71384;BME280;67558;52.166;5.004;2023-07-31T08:39:50;100641.53;;;21.62;67.74
71384;BME280;67558;52.166;5.004;2023-07-31T08:42:16;100614.34;;;21.50;67.40
71384;BME280;67558;52.166;5.004;2023-07-31T08:44:43;100624.19;;;21.54;67.50
71384;BME280;67558;52.166;5.004;2023-07-31T08:47:09;100640.50;;;21.66;67.59
71384;BME280;67558;52.166;5.004;2023-07-31T08:49:37;100635.84;;;21.67;67.76
71384;BME280;67558;52.166;5.004;2023-07-31T08:52:03;100628.72;;;21.62;67.38
71384;BME280;67558;52.166;5.004;2023-07-31T08:54:29;100636.97;;;21.66;67.89
71384;BME280;67558;52.166;5.004;2023-07-31T08:56:57;100631.97;;;21.68;67.82
71384;BME280;67558;52.166;5.004;2023-07-31T08:59:23;100622.84;;;21.60;67.90
71384;BME280;67558;52.166;5.004;2023-07-31T09:01:50;100636.31;;;21.69;67.57
71384;BME280;67558;52.166;5.004;2023-07-31T09:04:19;100647.38;;;21.76;67.70
71384;BME280;67558;52.166;5.004;2023-07-31T09:06:45;100634.81;;;21.72;67.57
71384;BME280;67558;52.166;5.004;2023-07-31T09:09:12;100629.25;;;21.68;67.92
71384;BME280;67558;52.166;5.004;2023-07-31T09:11:37;100643.19;;;21.79;68.04
71384;BME280;67558;52.166;5.004;2023-07-31T09:14:03;100649.06;;;21.81;67.83
71384;BME280;67558;52.166;5.004;2023-07-31T09:16:34;100624.13;;;21.79;67.93
71384;BME280;67558;52.166;5.004;2023-07-31T09:19:00;100629.22;;;21.80;67.88
71384;BME280;67558;52.166;5.004;2023-07-31T09:21:27;100623.00;;;21.80;67.94
71384;BME280;67558;52.166;5.004;2023-07-31T09:23:53;100625.13;;;21.86;68.15
71384;BME280;67558;52.166;5.004;2023-07-31T09:26:37;100621.06;;;21.80;68.07
71384;BME280;67558;52.166;5.004;2023-07-31T09:29:06;100625.31;;;21.94;68.10
71384;BME280;67558;52.166;5.004;2023-07-31T09:31:40;100621.69;;;21.89;68.06
71384;BME280;67558;52.166;5.004;2023-07-31T09:34:09;100626.81;;;21.91;68.06
71384;BME280;67558;52.166;5.004;2023-07-31T09:36:48;100626.13;;;21.94;68.07
71384;BME280;67558;52.166;5.004;2023-07-31T09:39:16;100625.44;;;21.97;67.76
71384;BME280;67558;52.166;5.004;2023-07-31T09:41:47;100617.75;;;21.87;67.88
71384;BME280;67558;52.166;5.004;2023-07-31T09:44:13;100642.22;;;21.99;68.07
71384;BME280;67558;52.166;5.004;2023-07-31T09:46:38;100630.53;;;21.99;68.37
71384;BME280;67558;52.166;5.004;2023-07-31T09:51:30;100626.66;;;22.00;68.52
71384;BME280;67558;52.166;5.004;2023-07-31T09:53:56;100621.47;;;21.95;68.55
71384;BME280;67558;52.166;5.004;2023-07-31T09:56:23;100611.63;;;21.90;67.87
71384;BME280;67558;52.166;5.004;2023-07-31T09:58:49;100629.94;;;22.05;68.03
71384;BME280;67558;52.166;5.004;2023-07-31T10:01:15;100597.63;;;21.92;68.35
71384;BME280;67558;52.166;5.004;2023-07-31T10:03:42;100611.66;;;22.06;68.46
71384;BME280;67558;52.166;5.004;2023-07-31T10:06:09;100616.41;;;22.09;68.34
71384;BME280;67558;52.166;5.004;2023-07-31T10:08:36;100622.72;;;22.13;68.20
71384;BME280;67558;52.166;5.004;2023-07-31T10:11:02;100607.53;;;22.24;67.69
71384;BME280;67558;52.166;5.004;2023-07-31T10:13:30;100605.56;;;22.25;67.80
71384;BME280;67558;52.166;5.004;2023-07-31T10:15:59;100576.59;;;22.04;67.36
71384;BME280;67558;52.166;5.004;2023-07-31T10:18:25;100628.88;;;22.38;67.63
71384;BME280;67558;52.166;5.004;2023-07-31T10:20:52;100601.69;;;22.26;67.38
71384;BME280;67558;52.166;5.004;2023-07-31T10:23:18;100624.44;;;22.46;67.79
71384;BME280;67558;52.166;5.004;2023-07-31T10:25:43;100624.50;;;22.49;67.70
71384;BME280;67558;52.166;5.004;2023-07-31T10:28:10;100617.56;;;22.52;67.51
71384;BME280;67558;52.166;5.004;2023-07-31T10:30:37;100629.34;;;22.56;67.78
71384;BME280;67558;52.166;5.004;2023-07-31T10:33:04;100603.22;;;22.39;67.38
71384;BME280;67558;52.166;5.004;2023-07-31T10:35:30;100606.56;;;22.48;67.25
71384;BME280;67558;52.166;5.004;2023-07-31T10:38:09;100608.59;;;22.52;67.39
71384;BME280;67558;52.166;5.004;2023-07-31T10:40:34;100614.56;;;22.41;67.70
71384;BME280;67558;52.166;5.004;2023-07-31T10:43:01;100607.44;;;22.37;67.96
71384;BME280;67558;52.166;5.004;2023-07-31T10:45:34;100621.25;;;22.44;68.50
71384;BME280;67558;52.166;5.004;2023-07-31T10:48:06;100623.59;;;22.45;68.02
71384;BME280;67558;52.166;5.004;2023-07-31T10:50:37;100614.31;;;22.46;68.40
71384;BME280;67558;52.166;5.004;2023-07-31T10:53:03;100621.09;;;22.53;67.98
71384;BME280;67558;52.166;5.004;2023-07-31T10:58:10;100611.41;;;22.55;67.91
71384;BME280;67558;52.166;5.004;2023-07-31T11:00:38;100611.06;;;22.57;68.29
71384;BME280;67558;52.166;5.004;2023-07-31T11:03:17;100597.50;;;22.44;67.79
71384;BME280;67558;52.166;5.004;2023-07-31T11:06:03;100604.47;;;22.58;67.35
71384;BME280;67558;52.166;5.004;2023-07-31T11:08:33;100611.06;;;22.73;67.21
71384;BME280;67558;52.166;5.004;2023-07-31T11:13:28;100615.19;;;22.66;66.84
71384;BME280;67558;52.166;5.004;2023-07-31T11:15:53;100602.19;;;22.60;67.04
71384;BME280;67558;52.166;5.004;2023-07-31T11:18:19;100607.28;;;22.61;66.96
71384;BME280;67558;52.166;5.004;2023-07-31T11:20:44;100616.06;;;22.70;66.93
71384;BME280;67558;52.166;5.004;2023-07-31T11:23:10;100611.06;;;22.73;67.37
71384;BME280;67558;52.166;5.004;2023-07-31T11:25:37;100600.44;;;22.67;67.26
71384;BME280;67558;52.166;5.004;2023-07-31T11:28:10;100594.09;;;22.63;67.00
71384;BME280;67558;52.166;5.004;2023-07-31T11:30:36;100601.66;;;22.70;66.92
71384;BME280;67558;52.166;5.004;2023-07-31T11:33:03;100610.44;;;22.79;67.32
71384;BME280;67558;52.166;5.004;2023-07-31T11:35:33;100603.41;;;22.78;66.86
71384;BME280;67558;52.166;5.004;2023-07-31T11:37:59;100601.81;;;22.77;66.95
71384;BME280;67558;52.166;5.004;2023-07-31T11:40:24;100587.59;;;22.68;66.85
71384;BME280;67558;52.166;5.004;2023-07-31T11:42:58;100594.78;;;22.76;67.06
71384;BME280;67558;52.166;5.004;2023-07-31T11:45:27;100603.84;;;22.80;67.20
71384;BME280;67558;52.166;5.004;2023-07-31T11:47:55;100602.25;;;22.79;67.11
71384;BME280;67558;52.166;5.004;2023-07-31T11:50:21;100579.13;;;22.73;67.14
71384;BME280;67558;52.166;5.004;2023-07-31T11:52:48;100601.13;;;22.80;66.74
71384;BME280;67558;52.166;5.004;2023-07-31T11:55:16;100598.41;;;22.80;67.25
71384;BME280;67558;52.166;5.004;2023-07-31T11:57:43;100584.50;;;22.69;67.18
71384;BME280;67558;52.166;5.004;2023-07-31T12:00:11;100602.69;;;22.81;67.22
71384;BME280;67558;52.166;5.004;2023-07-31T12:02:38;100603.84;;;22.80;66.82
71384;BME280;67558;52.166;5.004;2023-07-31T12:05:14;100612.03;;;22.80;66.84
71384;BME280;67558;52.166;5.004;2023-07-31T12:07:47;100606.47;;;22.77;66.82
71384;BME280;67558;52.166;5.004;2023-07-31T12:10:24;100608.16;;;22.65;67.06
71384;BME280;67558;52.166;5.004;2023-07-31T12:12:59;100614.84;;;22.68;67.27
71384;BME280;67558;52.166;5.004;2023-07-31T12:15:39;100596.88;;;22.67;66.98
71384;BME280;67558;52.166;5.004;2023-07-31T12:18:10;100585.19;;;22.66;67.22
71384;BME280;67558;52.166;5.004;2023-07-31T12:20:40;100613.94;;;22.80;67.36
71384;BME280;67558;52.166;5.004;2023-07-31T12:23:06;100601.13;;;22.80;66.91
71384;BME280;67558;52.166;5.004;2023-07-31T12:25:32;100583.06;;;22.76;67.21
71384;BME280;67558;52.166;5.004;2023-07-31T12:28:04;100572.88;;;22.73;66.91
71384;BME280;67558;52.166;5.004;2023-07-31T12:30:34;100578.50;;;22.80;67.16
71384;BME280;67558;52.166;5.004;2023-07-31T12:33:11;100580.19;;;22.84;66.94
71384;BME280;67558;52.166;5.004;2023-07-31T12:35:39;100569.28;;;22.84;67.24
71384;BME280;67558;52.166;5.004;2023-07-31T12:38:06;100569.69;;;22.86;67.13
71384;BME280;67558;52.166;5.004;2023-07-31T12:40:32;100574.44;;;22.89;66.89
71384;BME280;67558;52.166;5.004;2023-07-31T12:43:01;100574.09;;;22.91;67.08
71384;BME280;67558;52.166;5.004;2023-07-31T12:45:28;100561.50;;;22.86;66.94
71384;BME280;67558;52.166;5.004;2023-07-31T12:47:53;100564.84;;;22.96;66.92
71384;BME280;67558;52.166;5.004;2023-07-31T12:50:19;100560.19;;;22.96;66.86
71384;BME280;67558;52.166;5.004;2023-07-31T12:52:44;100547.28;;;22.93;67.13
71384;BME280;67558;52.166;5.004;2023-07-31T12:55:11;100553.16;;;22.95;67.28
71384;BME280;67558;52.166;5.004;2023-07-31T12:57:39;100548.56;;;22.99;67.03
71384;BME280;67558;52.166;5.004;2023-07-31T13:00:05;100541.09;;;22.96;67.04
71384;BME280;67558;52.166;5.004;2023-07-31T13:02:32;100549.44;;;23.03;67.18